Flight Track Log - Related Links

Times and Time Zones

All times are in EDT time to prevent confusion due to time zone crossing. See the EJA941 flight status page for this flight to view local times or setup timezone preferences in your user account.

Time Position Orientation Groundspeed Altitude Reporting Facility
EDT Latitude Longitude Course Direction KTS MPH feet Rate Location/Type
Thu 08:17:41 AM 39.4294 -74.5169 270° West 220 253 3,000  Level Washington Center
Thu 08:18:48 AM 39.3861 -74.5792 228° Southwest 258 297 5,800 1,828 Climbing Washington Center
Thu 08:19:49 AM 39.3578 -74.6656 247° West 267 307 6,900 541 Climbing Washington Center
Thu 08:20:50 AM 39.3272 -74.7544 246° West 274 315 6,900  Level Washington Center
Thu 08:21:48 AM 39.3028 -74.8325 248° West 274 315 6,900 303 Level Washington Center
Thu 08:22:49 AM 39.2739 -74.9186 247° West 274 315 7,500 496 Climbing Washington Center
Thu 08:23:00 AM 39.2500 -75.0316 270° West  Level FlightAware Approximate
Thu 08:23:49 AM 39.2558 -75.0153 256° West 274 315 7,900  Level Washington Center
Thu 08:24:50 AM 39.2792 -75.1064 288° West 266 306 7,900  Level Washington Center
Thu 08:25:50 AM 39.3003 -75.1972 287° West 261 300 7,900  Level Washington Center
Thu 08:26:50 AM 39.2692 -75.2806 244° Southwest 249 287 7,900  Level Washington Center
Thu 08:27:48 AM 39.2194 -75.3506 227° Southwest 249 287 7,900  Level Washington Center
Thu 08:28:48 AM 39.1653 -75.4203 225° Southwest 262 302 7,900  Level Washington Center
Thu 08:29:49 AM 39.1133 -75.4925 227° Southwest 272 313 7,900  Level Washington Center
Thu 08:30:50 AM 39.0592 -75.5594 224° Southwest 272 313 7,900  Level Washington Center
Thu 08:31:48 AM 39.0508 -75.6450 263° West 240 276 7,900  Level Washington Center
Thu 08:32:49 AM 39.0611 -75.7386 278° West 242 278 7,900  Level Washington Center
Thu 08:33:49 AM 39.0736 -75.8322 280° West 259 298 7,900  Level Washington Center
Thu 08:34:48 AM 39.0775 -75.9286 273° West 270 311 7,900 -655 Level Washington Center
Thu 08:35:48 AM 39.0625 -76.0194 258° West 270 311 6,600 -1,388 Descending Washington Center
Thu 08:36:49 AM 39.0353 -76.0967 246° West 262 302 5,100 -1,300 Descending Washington Center
Thu 08:37:48 AM 38.9931 -76.1792 237° Southwest 260 299 4,000 -555 Descending Washington Center
Thu 08:38:48 AM 38.9469 -76.2481 229° Southwest 265 305 4,000  Level Washington Center
Thu 08:39:49 AM 38.9008 -76.3117 227° Southwest 260 299 4,000  Level Washington Center
Thu 08:40:49 AM 38.9167 -76.4000 283° West 252 290 4,000  Level Potomac TRACON
Thu 08:41:49 AM 38.9667 -76.4667 314° West 235 270 4,000 -100 Level Potomac TRACON
Thu 08:42:49 AM 39.0000 -76.5167 311° West 221 254 3,800 -650 Descending Potomac TRACON
Thu 08:43:49 AM 39.0500 -76.5667 322° Northwest 212 244 2,700 -900 Descending Potomac TRACON
Thu 08:44:49 AM 39.1000 -76.6000 333° Northwest 157 181 2,000 -545 Descending Potomac TRACON
Thu 08:45:50 AM 39.1167 -76.6333 303° West 130 150 1,600  Descending Potomac TRACON
Thu 08:46:44 AM 39.1000 -76.6667 237° Southwest 194 223 2,000 522 Climbing Potomac TRACON
Thu 08:47:45 AM 39.0500 -76.6667 180° South 224 258 2,600 522 Climbing Potomac TRACON
Thu 08:48:39 AM 38.9833 -76.6833 191° South 234 269 3,000 211 Climbing Potomac TRACON
Thu 08:49:39 AM 38.9500 -76.6167 123° Southeast 229 264 3,000  Level Potomac TRACON
Thu 08:50:33 AM 38.9667 -76.5667 67° East 194 223 3,000  Level Potomac TRACON
Thu 08:51:27 AM 39.0167 -76.5500 15° North 178 205 3,000 -100 Level Potomac TRACON
Thu 08:52:33 AM 39.0500 -76.5667 339° North 142 163 2,800 -450 Descending Potomac TRACON
Thu 08:53:27 AM 39.0833 -76.5833 339° North 132 152 2,100 -737 Descending Potomac TRACON
Thu 08:54:27 AM 39.1167 -76.6167 322° Northwest 125 144 1,400 -645 Descending Potomac TRACON
Thu 08:55:28 AM 39.1333 -76.6333 322° Northwest 131 151 800 -590 Descending Potomac TRACON

Login

Don't have an account? Register now (free) for customized features, flight alerts, and more!